sensor_id;sensor_type;location;lat;lon;timestamp;P1;durP1;ratioP1;P2;durP2;ratioP2
66927;SDS011;59882;45.624;11.698;2022-08-01T00:00:40;6.63;;;3.17;;
66927;SDS011;59882;45.624;11.698;2022-08-01T00:03:06;6.73;;;3.30;;
66927;SDS011;59882;45.624;11.698;2022-08-01T00:05:31;6.70;;;3.20;;
66927;SDS011;59882;45.624;11.698;2022-08-01T00:07:57;6.85;;;2.85;;
66927;SDS011;59882;45.624;11.698;2022-08-01T00:10:23;7.97;;;3.30;;
66927;SDS011;59882;45.624;11.698;2022-08-01T00:12:49;6.23;;;3.00;;
66927;SDS011;59882;45.624;11.698;2022-08-01T00:15:16;5.78;;;3.20;;
66927;SDS011;59882;45.624;11.698;2022-08-01T00:17:42;6.40;;;3.30;;
66927;SDS011;59882;45.624;11.698;2022-08-01T00:20:09;6.33;;;3.53;;
66927;SDS011;59882;45.624;11.698;2022-08-01T00:22:36;5.75;;;3.20;;
66927;SDS011;59882;45.624;11.698;2022-08-01T00:25:03;5.80;;;3.42;;
66927;SDS011;59882;45.624;11.698;2022-08-01T00:27:29;6.93;;;3.03;;
66927;SDS011;59882;45.624;11.698;2022-08-01T00:29:56;5.37;;;3.20;;
66927;SDS011;59882;45.624;11.698;2022-08-01T00:32:22;9.02;;;3.58;;
66927;SDS011;59882;45.624;11.698;2022-08-01T00:34:47;5.97;;;3.37;;
66927;SDS011;59882;45.624;11.698;2022-08-01T00:37:13;6.82;;;3.55;;
66927;SDS011;59882;45.624;11.698;2022-08-01T00:39:38;7.20;;;3.13;;
66927;SDS011;59882;45.624;11.698;2022-08-01T00:42:07;7.47;;;3.27;;
66927;SDS011;59882;45.624;11.698;2022-08-01T00:44:34;7.53;;;3.33;;
66927;SDS011;59882;45.624;11.698;2022-08-01T00:47:00;5.68;;;3.25;;
66927;SDS011;59882;45.624;11.698;2022-08-01T00:49:26;7.50;;;2.88;;
66927;SDS011;59882;45.624;11.698;2022-08-01T00:51:52;6.20;;;2.67;;
66927;SDS011;59882;45.624;11.698;2022-08-01T00:54:18;6.50;;;3.10;;
66927;SDS011;59882;45.624;11.698;2022-08-01T00:56:44;5.75;;;3.22;;
66927;SDS011;59882;45.624;11.698;2022-08-01T00:59:11;7.27;;;3.73;;
66927;SDS011;59882;45.624;11.698;2022-08-01T01:01:37;9.32;;;3.67;;
66927;SDS011;59882;45.624;11.698;2022-08-01T01:04:03;7.55;;;4.47;;
66927;SDS011;59882;45.624;11.698;2022-08-01T01:11:44;6.00;;;4.82;;
66927;SDS011;59882;45.624;11.698;2022-08-01T01:14:53;9.02;;;5.13;;
66927;SDS011;59882;45.624;11.698;2022-08-01T01:17:48;7.60;;;5.70;;
66927;SDS011;59882;45.624;11.698;2022-08-01T01:20:21;10.23;;;6.00;;
66927;SDS011;59882;45.624;11.698;2022-08-01T01:30:39;11.73;;;8.75;;
66927;SDS011;59882;45.624;11.698;2022-08-01T01:33:08;14.30;;;9.85;;
66927;SDS011;59882;45.624;11.698;2022-08-01T01:35:36;12.53;;;9.07;;
66927;SDS011;59882;45.624;11.698;2022-08-01T01:38:09;10.98;;;9.85;;
66927;SDS011;59882;45.624;11.698;2022-08-01T01:40:39;11.55;;;9.70;;
66927;SDS011;59882;45.624;11.698;2022-08-01T01:43:07;15.88;;;10.57;;
66927;SDS011;59882;45.624;11.698;2022-08-01T01:45:36;13.15;;;9.63;;
66927;SDS011;59882;45.624;11.698;2022-08-01T01:48:04;11.43;;;8.90;;
66927;SDS011;59882;45.624;11.698;2022-08-01T01:50:32;10.70;;;9.68;;
66927;SDS011;59882;45.624;11.698;2022-08-01T01:53:00;12.13;;;8.43;;
66927;SDS011;59882;45.624;11.698;2022-08-01T01:55:27;9.95;;;8.52;;
66927;SDS011;59882;45.624;11.698;2022-08-01T01:57:54;8.93;;;8.00;;
66927;SDS011;59882;45.624;11.698;2022-08-01T02:00:22;9.53;;;8.03;;
66927;SDS011;59882;45.624;11.698;2022-08-01T02:02:50;10.55;;;7.45;;
66927;SDS011;59882;45.624;11.698;2022-08-01T02:05:18;8.20;;;6.50;;
66927;SDS011;59882;45.624;11.698;2022-08-01T02:07:44;8.90;;;7.00;;
66927;SDS011;59882;45.624;11.698;2022-08-01T02:10:10;12.35;;;6.00;;
66927;SDS011;59882;45.624;11.698;2022-08-01T02:12:39;9.03;;;6.27;;
66927;SDS011;59882;45.624;11.698;2022-08-01T02:15:08;9.68;;;6.10;;
66927;SDS011;59882;45.624;11.698;2022-08-01T02:17:37;10.68;;;5.97;;
66927;SDS011;59882;45.624;11.698;2022-08-01T02:20:07;8.13;;;5.75;;
66927;SDS011;59882;45.624;11.698;2022-08-01T02:22:34;7.22;;;5.82;;
66927;SDS011;59882;45.624;11.698;2022-08-01T02:25:07;8.27;;;5.73;;
66927;SDS011;59882;45.624;11.698;2022-08-01T02:28:01;7.82;;;5.80;;
66927;SDS011;59882;45.624;11.698;2022-08-01T02:30:32;6.90;;;6.03;;
66927;SDS011;59882;45.624;11.698;2022-08-01T02:33:08;8.52;;;6.05;;
66927;SDS011;59882;45.624;11.698;2022-08-01T02:35:40;7.78;;;6.05;;
66927;SDS011;59882;45.624;11.698;2022-08-01T02:38:09;8.57;;;6.00;;
66927;SDS011;59882;45.624;11.698;2022-08-01T02:40:37;12.27;;;6.30;;
66927;SDS011;59882;45.624;11.698;2022-08-01T02:43:05;10.30;;;6.00;;
66927;SDS011;59882;45.624;11.698;2022-08-01T02:45:33;12.15;;;6.00;;
66927;SDS011;59882;45.624;11.698;2022-08-01T02:48:07;9.55;;;6.82;;
66927;SDS011;59882;45.624;11.698;2022-08-01T02:50:36;10.47;;;6.50;;
66927;SDS011;59882;45.624;11.698;2022-08-01T02:53:03;7.90;;;5.78;;
66927;SDS011;59882;45.624;11.698;2022-08-01T02:55:32;13.73;;;7.38;;
66927;SDS011;59882;45.624;11.698;2022-08-01T02:57:59;11.77;;;6.18;;
66927;SDS011;59882;45.624;11.698;2022-08-01T03:00:27;10.15;;;7.15;;
66927;SDS011;59882;45.624;11.698;2022-08-01T03:02:54;7.43;;;6.30;;
66927;SDS011;59882;45.624;11.698;2022-08-01T03:05:22;11.40;;;6.55;;
66927;SDS011;59882;45.624;11.698;2022-08-01T03:07:49;10.63;;;6.50;;
66927;SDS011;59882;45.624;11.698;2022-08-01T03:10:17;8.05;;;6.82;;
66927;SDS011;59882;45.624;11.698;2022-08-01T03:12:44;11.10;;;7.18;;
66927;SDS011;59882;45.624;11.698;2022-08-01T03:15:11;8.07;;;6.77;;
66927;SDS011;59882;45.624;11.698;2022-08-01T03:17:38;8.38;;;6.88;;
66927;SDS011;59882;45.624;11.698;2022-08-01T03:20:06;7.93;;;7.13;;
66927;SDS011;59882;45.624;11.698;2022-08-01T03:22:33;8.20;;;6.90;;
66927;SDS011;59882;45.624;11.698;2022-08-01T03:25:02;11.57;;;7.38;;
66927;SDS011;59882;45.624;11.698;2022-08-01T03:27:28;9.50;;;6.53;;
66927;SDS011;59882;45.624;11.698;2022-08-01T03:29:55;9.18;;;5.60;;
66927;SDS011;59882;45.624;11.698;2022-08-01T03:32:22;10.30;;;6.22;;
66927;SDS011;59882;45.624;11.698;2022-08-01T03:34:49;9.23;;;5.40;;
66927;SDS011;59882;45.624;11.698;2022-08-01T03:37:23;8.53;;;5.73;;
66927;SDS011;59882;45.624;11.698;2022-08-01T03:39:56;6.88;;;4.85;;
66927;SDS011;59882;45.624;11.698;2022-08-01T03:42:31;8.70;;;5.15;;
66927;SDS011;59882;45.624;11.698;2022-08-01T03:45:00;7.80;;;5.70;;
66927;SDS011;59882;45.624;11.698;2022-08-01T03:47:32;7.93;;;5.30;;
66927;SDS011;59882;45.624;11.698;2022-08-01T03:50:00;8.47;;;5.13;;
66927;SDS011;59882;45.624;11.698;2022-08-01T03:52:28;7.68;;;4.88;;
66927;SDS011;59882;45.624;11.698;2022-08-01T03:54:56;9.40;;;5.35;;
66927;SDS011;59882;45.624;11.698;2022-08-01T03:57:24;6.93;;;5.30;;
66927;SDS011;59882;45.624;11.698;2022-08-01T03:59:53;8.10;;;5.78;;
66927;SDS011;59882;45.624;11.698;2022-08-01T04:02:23;10.53;;;6.00;;
66927;SDS011;59882;45.624;11.698;2022-08-01T04:04:50;11.10;;;6.32;;
66927;SDS011;59882;45.624;11.698;2022-08-01T04:07:23;7.97;;;6.65;;
66927;SDS011;59882;45.624;11.698;2022-08-01T04:09:50;8.40;;;5.55;;
66927;SDS011;59882;45.624;11.698;2022-08-01T04:12:17;8.82;;;6.43;;
66927;SDS011;59882;45.624;11.698;2022-08-01T04:14:43;11.47;;;6.73;;
66927;SDS011;59882;45.624;11.698;2022-08-01T04:17:08;8.68;;;5.75;;
66927;SDS011;59882;45.624;11.698;2022-08-01T04:19:34;9.60;;;5.80;;
66927;SDS011;59882;45.624;11.698;2022-08-01T04:22:00;8.43;;;6.30;;
66927;SDS011;59882;45.624;11.698;2022-08-01T04:24:27;10.95;;;6.80;;
66927;SDS011;59882;45.624;11.698;2022-08-01T04:26:55;11.20;;;6.22;;
66927;SDS011;59882;45.624;11.698;2022-08-01T04:29:23;8.97;;;6.53;;
66927;SDS011;59882;45.624;11.698;2022-08-01T04:31:49;7.18;;;5.75;;
66927;SDS011;59882;45.624;11.698;2022-08-01T04:34:20;12.27;;;6.05;;
66927;SDS011;59882;45.624;11.698;2022-08-01T04:36:49;8.98;;;6.30;;
66927;SDS011;59882;45.624;11.698;2022-08-01T04:39:17;10.45;;;6.40;;
66927;SDS011;59882;45.624;11.698;2022-08-01T04:41:45;9.00;;;6.17;;
66927;SDS011;59882;45.624;11.698;2022-08-01T04:44:12;8.82;;;5.78;;
66927;SDS011;59882;45.624;11.698;2022-08-01T04:46:38;10.27;;;6.13;;
66927;SDS011;59882;45.624;11.698;2022-08-01T04:49:06;8.73;;;6.07;;
66927;SDS011;59882;45.624;11.698;2022-08-01T04:51:33;10.02;;;5.88;;
66927;SDS011;59882;45.624;11.698;2022-08-01T04:53:59;9.20;;;6.33;;
66927;SDS011;59882;45.624;11.698;2022-08-01T04:56:26;8.40;;;6.38;;
66927;SDS011;59882;45.624;11.698;2022-08-01T04:58:51;9.75;;;5.70;;
66927;SDS011;59882;45.624;11.698;2022-08-01T05:01:37;11.63;;;6.33;;
66927;SDS011;59882;45.624;11.698;2022-08-01T05:04:03;8.25;;;5.95;;
66927;SDS011;59882;45.624;11.698;2022-08-01T05:06:29;9.17;;;5.83;;
66927;SDS011;59882;45.624;11.698;2022-08-01T05:08:54;7.55;;;5.50;;
66927;SDS011;59882;45.624;11.698;2022-08-01T05:11:20;7.70;;;5.25;;
66927;SDS011;59882;45.624;11.698;2022-08-01T05:13:47;10.50;;;5.17;;
66927;SDS011;59882;45.624;11.698;2022-08-01T05:16:13;7.63;;;4.55;;
66927;SDS011;59882;45.624;11.698;2022-08-01T05:18:38;8.70;;;4.60;;
66927;SDS011;59882;45.624;11.698;2022-08-01T05:21:04;15.70;;;5.40;;
66927;SDS011;59882;45.624;11.698;2022-08-01T05:23:30;7.37;;;5.60;;
66927;SDS011;59882;45.624;11.698;2022-08-01T05:25:55;8.38;;;4.60;;
66927;SDS011;59882;45.624;11.698;2022-08-01T05:28:21;10.40;;;3.90;;
66927;SDS011;59882;45.624;11.698;2022-08-01T05:30:46;11.77;;;4.63;;
66927;SDS011;59882;45.624;11.698;2022-08-01T05:33:12;9.93;;;4.50;;
66927;SDS011;59882;45.624;11.698;2022-08-01T05:35:38;10.27;;;4.30;;
66927;SDS011;59882;45.624;11.698;2022-08-01T05:38:03;8.40;;;4.20;;
66927;SDS011;59882;45.624;11.698;2022-08-01T05:40:29;10.20;;;4.43;;
66927;SDS011;59882;45.624;11.698;2022-08-01T05:42:54;7.38;;;3.88;;
66927;SDS011;59882;45.624;11.698;2022-08-01T05:45:20;10.27;;;2.63;;
66927;SDS011;59882;45.624;11.698;2022-08-01T05:47:46;6.03;;;2.47;;
66927;SDS011;59882;45.624;11.698;2022-08-01T05:50:11;5.65;;;2.20;;
66927;SDS011;59882;45.624;11.698;2022-08-01T05:52:37;8.07;;;2.43;;
66927;SDS011;59882;45.624;11.698;2022-08-01T05:55:03;6.70;;;2.20;;
66927;SDS011;59882;45.624;11.698;2022-08-01T05:57:29;8.50;;;2.40;;
66927;SDS011;59882;45.624;11.698;2022-08-01T05:59:55;8.37;;;2.47;;
66927;SDS011;59882;45.624;11.698;2022-08-01T06:02:21;11.82;;;2.70;;
66927;SDS011;59882;45.624;11.698;2022-08-01T06:04:46;9.17;;;2.73;;
66927;SDS011;59882;45.624;11.698;2022-08-01T06:07:12;8.23;;;2.43;;
66927;SDS011;59882;45.624;11.698;2022-08-01T06:09:37;7.28;;;2.55;;
66927;SDS011;59882;45.624;11.698;2022-08-01T06:12:03;9.07;;;2.27;;
66927;SDS011;59882;45.624;11.698;2022-08-01T06:14:29;5.80;;;1.92;;
66927;SDS011;59882;45.624;11.698;2022-08-01T06:16:55;7.93;;;2.13;;
66927;SDS011;59882;45.624;11.698;2022-08-01T06:19:20;7.13;;;2.30;;
66927;SDS011;59882;45.624;11.698;2022-08-01T06:21:46;9.57;;;2.57;;
66927;SDS011;59882;45.624;11.698;2022-08-01T06:24:12;9.68;;;2.80;;
66927;SDS011;59882;45.624;11.698;2022-08-01T06:26:37;6.20;;;2.20;;
66927;SDS011;59882;45.624;11.698;2022-08-01T06:29:03;10.07;;;2.30;;
66927;SDS011;59882;45.624;11.698;2022-08-01T06:31:29;5.90;;;2.17;;
66927;SDS011;59882;45.624;11.698;2022-08-01T06:33:56;7.13;;;1.60;;
66927;SDS011;59882;45.624;11.698;2022-08-01T06:36:22;4.53;;;1.65;;
66927;SDS011;59882;45.624;11.698;2022-08-01T06:38:47;8.53;;;2.00;;
66927;SDS011;59882;45.624;11.698;2022-08-01T06:41:13;5.03;;;2.13;;
66927;SDS011;59882;45.624;11.698;2022-08-01T06:43:39;6.17;;;2.20;;
66927;SDS011;59882;45.624;11.698;2022-08-01T06:46:04;5.10;;;2.03;;
66927;SDS011;59882;45.624;11.698;2022-08-01T06:48:30;6.43;;;2.43;;
66927;SDS011;59882;45.624;11.698;2022-08-01T06:50:56;5.50;;;2.25;;
66927;SDS011;59882;45.624;11.698;2022-08-01T06:53:35;8.13;;;2.10;;
66927;SDS011;59882;45.624;11.698;2022-08-01T06:56:01;5.85;;;2.20;;
66927;SDS011;59882;45.624;11.698;2022-08-01T06:58:27;6.78;;;2.58;;
66927;SDS011;59882;45.624;11.698;2022-08-01T07:00:52;4.60;;;2.07;;
66927;SDS011;59882;45.624;11.698;2022-08-01T07:03:18;7.70;;;2.35;;
66927;SDS011;59882;45.624;11.698;2022-08-01T07:05:43;6.97;;;2.20;;
66927;SDS011;59882;45.624;11.698;2022-08-01T07:08:09;8.45;;;2.80;;
66927;SDS011;59882;45.624;11.698;2022-08-01T07:10:35;7.83;;;2.20;;
66927;SDS011;59882;45.624;11.698;2022-08-01T07:13:00;5.60;;;2.57;;
66927;SDS011;59882;45.624;11.698;2022-08-01T07:15:26;8.27;;;3.17;;
66927;SDS011;59882;45.624;11.698;2022-08-01T07:17:52;7.70;;;2.60;;
66927;SDS011;59882;45.624;11.698;2022-08-01T07:20:17;8.18;;;3.00;;
66927;SDS011;59882;45.624;11.698;2022-08-01T07:22:43;7.63;;;3.00;;
66927;SDS011;59882;45.624;11.698;2022-08-01T07:25:09;5.90;;;3.10;;
66927;SDS011;59882;45.624;11.698;2022-08-01T07:27:35;8.37;;;3.13;;
66927;SDS011;59882;45.624;11.698;2022-08-01T07:30:02;7.25;;;2.95;;
66927;SDS011;59882;45.624;11.698;2022-08-01T07:32:29;5.55;;;2.90;;
66927;SDS011;59882;45.624;11.698;2022-08-01T07:34:55;6.53;;;3.40;;
66927;SDS011;59882;45.624;11.698;2022-08-01T07:37:21;8.80;;;2.80;;
66927;SDS011;59882;45.624;11.698;2022-08-01T07:39:47;6.60;;;3.25;;
66927;SDS011;59882;45.624;11.698;2022-08-01T07:42:12;7.35;;;2.75;;
66927;SDS011;59882;45.624;11.698;2022-08-01T07:44:38;4.20;;;2.30;;
66927;SDS011;59882;45.624;11.698;2022-08-01T07:47:04;5.83;;;2.90;;
66927;SDS011;59882;45.624;11.698;2022-08-01T07:49:30;6.97;;;2.27;;
66927;SDS011;59882;45.624;11.698;2022-08-01T07:51:55;4.90;;;2.75;;
66927;SDS011;59882;45.624;11.698;2022-08-01T07:54:21;7.03;;;3.00;;
66927;SDS011;59882;45.624;11.698;2022-08-01T07:56:49;7.40;;;2.85;;
66927;SDS011;59882;45.624;11.698;2022-08-01T07:59:15;6.43;;;3.33;;
66927;SDS011;59882;45.624;11.698;2022-08-01T08:01:41;7.87;;;2.60;;
66927;SDS011;59882;45.624;11.698;2022-08-01T08:04:06;6.37;;;3.20;;
66927;SDS011;59882;45.624;11.698;2022-08-01T08:06:32;5.43;;;2.60;;
66927;SDS011;59882;45.624;11.698;2022-08-01T08:08:58;6.03;;;2.50;;
66927;SDS011;59882;45.624;11.698;2022-08-01T08:11:23;5.93;;;3.07;;
66927;SDS011;59882;45.624;11.698;2022-08-01T08:13:49;4.70;;;2.80;;
66927;SDS011;59882;45.624;11.698;2022-08-01T08:16:15;4.73;;;2.50;;
66927;SDS011;59882;45.624;11.698;2022-08-01T08:18:40;6.13;;;2.53;;
66927;SDS011;59882;45.624;11.698;2022-08-01T08:21:06;8.45;;;2.67;;
66927;SDS011;59882;45.624;11.698;2022-08-01T08:23:32;4.13;;;2.00;;
66927;SDS011;59882;45.624;11.698;2022-08-01T08:26:16;4.22;;;2.10;;
66927;SDS011;59882;45.624;11.698;2022-08-01T08:28:41;5.35;;;2.50;;
66927;SDS011;59882;45.624;11.698;2022-08-01T08:31:07;4.37;;;2.10;;
66927;SDS011;59882;45.624;11.698;2022-08-01T08:33:33;7.93;;;2.72;;
66927;SDS011;59882;45.624;11.698;2022-08-01T08:35:59;6.10;;;2.80;;
66927;SDS011;59882;45.624;11.698;2022-08-01T08:38:24;4.22;;;2.58;;
66927;SDS011;59882;45.624;11.698;2022-08-01T08:40:52;5.10;;;2.63;;
66927;SDS011;59882;45.624;11.698;2022-08-01T08:43:18;4.40;;;2.50;;
66927;SDS011;59882;45.624;11.698;2022-08-01T08:45:44;5.80;;;2.67;;
66927;SDS011;59882;45.624;11.698;2022-08-01T08:48:10;7.35;;;2.78;;
66927;SDS011;59882;45.624;11.698;2022-08-01T08:50:37;6.72;;;2.40;;
66927;SDS011;59882;45.624;11.698;2022-08-01T08:53:05;8.57;;;3.03;;
66927;SDS011;59882;45.624;11.698;2022-08-01T08:55:34;5.57;;;2.40;;
66927;SDS011;59882;45.624;11.698;2022-08-01T08:58:00;6.82;;;2.70;;
66927;SDS011;59882;45.624;11.698;2022-08-01T09:00:30;5.80;;;2.78;;
66927;SDS011;59882;45.624;11.698;2022-08-01T09:02:57;4.57;;;2.47;;
66927;SDS011;59882;45.624;11.698;2022-08-01T09:05:23;6.40;;;2.90;;
66927;SDS011;59882;45.624;11.698;2022-08-01T09:07:52;4.82;;;1.92;;
66927;SDS011;59882;45.624;11.698;2022-08-01T09:10:18;4.75;;;2.55;;
66927;SDS011;59882;45.624;11.698;2022-08-01T09:18:05;7.63;;;2.95;;
66927;SDS011;59882;45.624;11.698;2022-08-01T09:20:31;7.20;;;2.65;;
66927;SDS011;59882;45.624;11.698;2022-08-01T09:22:59;4.50;;;2.40;;
66927;SDS011;59882;45.624;11.698;2022-08-01T09:25:25;6.50;;;2.90;;
66927;SDS011;59882;45.624;11.698;2022-08-01T09:28:04;6.97;;;2.92;;
66927;SDS011;59882;45.624;11.698;2022-08-01T09:30:36;9.05;;;2.67;;
66927;SDS011;59882;45.624;11.698;2022-08-01T09:33:03;5.85;;;2.05;;
66927;SDS011;59882;45.624;11.698;2022-08-01T09:35:33;5.40;;;2.60;;
66927;SDS011;59882;45.624;11.698;2022-08-01T09:38:14;4.73;;;2.60;;
66927;SDS011;59882;45.624;11.698;2022-08-01T09:40:54;7.05;;;2.30;;
66927;SDS011;59882;45.624;11.698;2022-08-01T09:43:20;6.97;;;2.38;;
66927;SDS011;59882;45.624;11.698;2022-08-01T09:45:48;6.00;;;2.50;;
66927;SDS011;59882;45.624;11.698;2022-08-01T09:48:14;3.80;;;2.20;;
66927;SDS011;59882;45.624;11.698;2022-08-01T09:50:43;5.07;;;2.60;;
66927;SDS011;59882;45.624;11.698;2022-08-01T09:53:10;4.07;;;2.13;;
66927;SDS011;59882;45.624;11.698;2022-08-01T09:55:37;5.93;;;2.35;;
66927;SDS011;59882;45.624;11.698;2022-08-01T09:58:03;4.63;;;2.40;;
66927;SDS011;59882;45.624;11.698;2022-08-01T10:00:30;7.47;;;2.27;;
66927;SDS011;59882;45.624;11.698;2022-08-01T10:02:56;5.63;;;2.67;;
66927;SDS011;59882;45.624;11.698;2022-08-01T10:05:40;5.72;;;2.05;;
66927;SDS011;59882;45.624;11.698;2022-08-01T10:08:07;6.53;;;2.30;;
66927;SDS011;59882;45.624;11.698;2022-08-01T10:10:33;5.57;;;1.95;;
66927;SDS011;59882;45.624;11.698;2022-08-01T10:12:59;5.13;;;2.20;;
66927;SDS011;59882;45.624;11.698;2022-08-01T10:15:25;4.35;;;2.42;;
66927;SDS011;59882;45.624;11.698;2022-08-01T10:17:53;5.57;;;2.40;;
66927;SDS011;59882;45.624;11.698;2022-08-01T10:20:23;5.60;;;2.13;;
66927;SDS011;59882;45.624;11.698;2022-08-01T10:22:51;5.53;;;2.27;;
66927;SDS011;59882;45.624;11.698;2022-08-01T10:25:18;4.85;;;2.05;;
66927;SDS011;59882;45.624;11.698;2022-08-01T10:27:48;6.70;;;2.97;;
66927;SDS011;59882;45.624;11.698;2022-08-01T10:30:15;4.82;;;1.88;;
66927;SDS011;59882;45.624;11.698;2022-08-01T10:32:41;4.22;;;2.47;;
66927;SDS011;59882;45.624;11.698;2022-08-01T10:35:08;4.00;;;1.87;;
66927;SDS011;59882;45.624;11.698;2022-08-01T10:37:34;7.38;;;2.05;;
66927;SDS011;59882;45.624;11.698;2022-08-01T10:40:00;6.18;;;2.40;;
66927;SDS011;59882;45.624;11.698;2022-08-01T10:42:27;4.72;;;2.05;;
66927;SDS011;59882;45.624;11.698;2022-08-01T10:44:54;5.50;;;1.88;;
66927;SDS011;59882;45.624;11.698;2022-08-01T10:47:22;7.27;;;2.40;;
66927;SDS011;59882;45.624;11.698;2022-08-01T10:49:56;5.18;;;2.22;;
66927;SDS011;59882;45.624;11.698;2022-08-01T10:52:31;4.32;;;2.40;;
66927;SDS011;59882;45.624;11.698;2022-08-01T10:55:01;8.45;;;2.20;;
66927;SDS011;59882;45.624;11.698;2022-08-01T10:57:46;4.80;;;2.08;;
66927;SDS011;59882;45.624;11.698;2022-08-01T11:00:20;4.07;;;2.53;;
66927;SDS011;59882;45.624;11.698;2022-08-01T11:02:57;5.90;;;1.75;;
66927;SDS011;59882;45.624;11.698;2022-08-01T11:05:31;4.53;;;2.28;;
66927;SDS011;59882;45.624;11.698;2022-08-01T11:08:01;5.53;;;2.30;;
66927;SDS011;59882;45.624;11.698;2022-08-01T11:10:46;5.32;;;2.33;;
66927;SDS011;59882;45.624;11.698;2022-08-01T11:13:13;4.87;;;2.10;;
66927;SDS011;59882;45.624;11.698;2022-08-01T11:15:39;4.32;;;2.28;;
66927;SDS011;59882;45.624;11.698;2022-08-01T11:20:56;5.57;;;2.30;;
66927;SDS011;59882;45.624;11.698;2022-08-01T11:23:23;5.03;;;2.50;;
66927;SDS011;59882;45.624;11.698;2022-08-01T11:28:18;4.78;;;1.88;;
66927;SDS011;59882;45.624;11.698;2022-08-01T11:30:48;5.45;;;2.25;;
66927;SDS011;59882;45.624;11.698;2022-08-01T11:33:16;3.30;;;2.17;;
66927;SDS011;59882;45.624;11.698;2022-08-01T11:38:37;4.47;;;2.10;;
66927;SDS011;59882;45.624;11.698;2022-08-01T11:41:30;4.03;;;2.10;;
66927;SDS011;59882;45.624;11.698;2022-08-01T11:44:01;5.93;;;2.10;;
66927;SDS011;59882;45.624;11.698;2022-08-01T11:54:31;7.63;;;2.47;;
66927;SDS011;59882;45.624;11.698;2022-08-01T11:56:59;4.18;;;2.30;;
66927;SDS011;59882;45.624;11.698;2022-08-01T11:59:26;4.53;;;2.38;;
66927;SDS011;59882;45.624;11.698;2022-08-01T12:01:52;4.10;;;2.27;;
66927;SDS011;59882;45.624;11.698;2022-08-01T12:04:17;3.75;;;2.50;;
66927;SDS011;59882;45.624;11.698;2022-08-01T12:06:43;6.30;;;2.88;;
66927;SDS011;59882;45.624;11.698;2022-08-01T12:09:19;3.93;;;2.23;;
66927;SDS011;59882;45.624;11.698;2022-08-01T12:11:48;4.90;;;2.25;;
66927;SDS011;59882;45.624;11.698;2022-08-01T12:14:20;4.65;;;2.20;;
66927;SDS011;59882;45.624;11.698;2022-08-01T12:16:50;4.20;;;2.72;;
66927;SDS011;59882;45.624;11.698;2022-08-01T12:19:18;5.40;;;2.67;;
66927;SDS011;59882;45.624;11.698;2022-08-01T12:22:04;5.88;;;2.47;;
66927;SDS011;59882;45.624;11.698;2022-08-01T12:24:34;5.93;;;2.63;;
66927;SDS011;59882;45.624;11.698;2022-08-01T12:27:01;4.20;;;2.38;;
66927;SDS011;59882;45.624;11.698;2022-08-01T12:29:33;3.58;;;2.17;;
66927;SDS011;59882;45.624;11.698;2022-08-01T12:32:00;5.37;;;2.43;;
66927;SDS011;59882;45.624;11.698;2022-08-01T12:34:30;5.25;;;2.30;;
66927;SDS011;59882;45.624;11.698;2022-08-01T12:36:59;3.80;;;2.05;;
66927;SDS011;59882;45.624;11.698;2022-08-01T12:39:31;5.35;;;2.30;;
66927;SDS011;59882;45.624;11.698;2022-08-01T12:41:58;3.63;;;2.08;;
66927;SDS011;59882;45.624;11.698;2022-08-01T12:44:24;3.63;;;2.03;;
66927;SDS011;59882;45.624;11.698;2022-08-01T12:46:51;4.50;;;2.60;;
66927;SDS011;59882;45.624;11.698;2022-08-01T12:49:17;4.07;;;2.50;;
66927;SDS011;59882;45.624;11.698;2022-08-01T12:51:43;4.47;;;2.30;;
66927;SDS011;59882;45.624;11.698;2022-08-01T12:54:09;5.47;;;2.22;;
66927;SDS011;59882;45.624;11.698;2022-08-01T12:56:35;3.95;;;2.30;;
66927;SDS011;59882;45.624;11.698;2022-08-01T12:59:01;5.27;;;2.90;;
66927;SDS011;59882;45.624;11.698;2022-08-01T13:01:27;6.75;;;2.85;;
66927;SDS011;59882;45.624;11.698;2022-08-01T13:04:00;3.42;;;2.78;;
66927;SDS011;59882;45.624;11.698;2022-08-01T13:06:28;4.10;;;3.13;;
66927;SDS011;59882;45.624;11.698;2022-08-01T13:08:55;8.70;;;3.20;;
66927;SDS011;59882;45.624;11.698;2022-08-01T13:11:33;6.95;;;3.78;;
66927;SDS011;59882;45.624;11.698;2022-08-01T13:13:59;5.05;;;3.75;;
66927;SDS011;59882;45.624;11.698;2022-08-01T13:16:26;5.47;;;3.58;;
66927;SDS011;59882;45.624;11.698;2022-08-01T13:18:53;5.50;;;3.28;;
66927;SDS011;59882;45.624;11.698;2022-08-01T13:21:21;4.07;;;3.40;;
66927;SDS011;59882;45.624;11.698;2022-08-01T13:29:04;4.75;;;3.72;;
66927;SDS011;59882;45.624;11.698;2022-08-01T13:31:36;4.65;;;4.25;;
66927;SDS011;59882;45.624;11.698;2022-08-01T13:34:03;4.87;;;4.40;;
66927;SDS011;59882;45.624;11.698;2022-08-01T13:36:29;5.18;;;4.18;;
66927;SDS011;59882;45.624;11.698;2022-08-01T13:38:56;5.00;;;4.60;;
66927;SDS011;59882;45.624;11.698;2022-08-01T13:41:43;5.57;;;4.15;;
66927;SDS011;59882;45.624;11.698;2022-08-01T13:44:10;5.13;;;4.63;;
66927;SDS011;59882;45.624;11.698;2022-08-01T13:46:36;4.80;;;4.10;;
66927;SDS011;59882;45.624;11.698;2022-08-01T13:49:03;6.20;;;4.57;;
66927;SDS011;59882;45.624;11.698;2022-08-01T13:51:30;6.00;;;4.28;;
66927;SDS011;59882;45.624;11.698;2022-08-01T13:53:55;6.82;;;4.55;;
66927;SDS011;59882;45.624;11.698;2022-08-01T13:56:21;4.73;;;4.33;;
66927;SDS011;59882;45.624;11.698;2022-08-01T13:58:48;5.40;;;4.72;;
66927;SDS011;59882;45.624;11.698;2022-08-01T14:01:14;6.50;;;4.77;;
66927;SDS011;59882;45.624;11.698;2022-08-01T14:03:39;6.80;;;4.65;;
66927;SDS011;59882;45.624;11.698;2022-08-01T14:06:05;5.35;;;4.85;;
66927;SDS011;59882;45.624;11.698;2022-08-01T14:08:31;5.68;;;5.03;;
66927;SDS011;59882;45.624;11.698;2022-08-01T14:10:58;6.35;;;5.40;;
66927;SDS011;59882;45.624;11.698;2022-08-01T14:13:24;5.50;;;5.03;;
66927;SDS011;59882;45.624;11.698;2022-08-01T14:15:50;5.53;;;5.05;;
66927;SDS011;59882;45.624;11.698;2022-08-01T14:18:16;5.97;;;5.32;;
66927;SDS011;59882;45.624;11.698;2022-08-01T14:20:42;5.67;;;5.17;;
66927;SDS011;59882;45.624;11.698;2022-08-01T14:23:09;6.93;;;6.22;;
66927;SDS011;59882;45.624;11.698;2022-08-01T14:25:36;6.00;;;5.50;;
66927;SDS011;59882;45.624;11.698;2022-08-01T14:28:02;6.05;;;5.47;;
66927;SDS011;59882;45.624;11.698;2022-08-01T14:30:29;5.97;;;5.37;;
66927;SDS011;59882;45.624;11.698;2022-08-01T14:32:55;6.38;;;5.82;;
66927;SDS011;59882;45.624;11.698;2022-08-01T14:35:21;6.32;;;5.63;;
66927;SDS011;59882;45.624;11.698;2022-08-01T14:37:46;6.70;;;5.60;;
66927;SDS011;59882;45.624;11.698;2022-08-01T14:40:12;5.13;;;4.63;;
66927;SDS011;59882;45.624;11.698;2022-08-01T14:42:38;6.43;;;4.57;;
66927;SDS011;59882;45.624;11.698;2022-08-01T14:45:05;5.18;;;4.57;;
66927;SDS011;59882;45.624;11.698;2022-08-01T14:47:42;5.63;;;5.20;;
66927;SDS011;59882;45.624;11.698;2022-08-01T14:50:10;5.25;;;4.53;;
66927;SDS011;59882;45.624;11.698;2022-08-01T14:52:37;4.45;;;4.05;;
66927;SDS011;59882;45.624;11.698;2022-08-01T14:55:04;5.50;;;4.30;;
66927;SDS011;59882;45.624;11.698;2022-08-01T14:57:31;4.55;;;3.92;;
66927;SDS011;59882;45.624;11.698;2022-08-01T14:59:57;4.57;;;4.18;;
66927;SDS011;59882;45.624;11.698;2022-08-01T15:02:23;4.30;;;3.73;;
66927;SDS011;59882;45.624;11.698;2022-08-01T15:04:49;4.82;;;3.45;;
66927;SDS011;59882;45.624;11.698;2022-08-01T15:07:15;4.05;;;3.65;;
66927;SDS011;59882;45.624;11.698;2022-08-01T15:09:41;4.67;;;4.13;;
66927;SDS011;59882;45.624;11.698;2022-08-01T15:12:08;5.65;;;5.15;;
66927;SDS011;59882;45.624;11.698;2022-08-01T15:14:34;5.55;;;5.03;;
66927;SDS011;59882;45.624;11.698;2022-08-01T15:17:22;5.22;;;4.65;;